sensor_id;sensor_type;location;lat;lon;timestamp;pressure;altitude;pressure_sealevel;temperature;humidity
55540;BME280;41384;51.418;7.286;2022-07-06T00:01:00;100738.97;;;18.03;58.20
55540;BME280;41384;51.418;7.286;2022-07-06T00:03:26;100735.81;;;18.06;58.11
55540;BME280;41384;51.418;7.286;2022-07-06T00:05:51;100731.53;;;18.05;58.71
55540;BME280;41384;51.418;7.286;2022-07-06T00:08:16;100733.88;;;18.02;57.76
55540;BME280;41384;51.418;7.286;2022-07-06T00:10:41;100739.28;;;17.95;57.83
55540;BME280;41384;51.418;7.286;2022-07-06T00:13:07;100738.56;;;17.40;59.28
55540;BME280;41384;51.418;7.286;2022-07-06T00:15:32;100748.13;;;17.96;57.47
55540;BME280;41384;51.418;7.286;2022-07-06T00:17:57;100744.41;;;17.97;57.50
55540;BME280;41384;51.418;7.286;2022-07-06T00:20:23;100746.50;;;18.06;56.66
55540;BME280;41384;51.418;7.286;2022-07-06T00:22:48;100745.59;;;18.01;56.44
55540;BME280;41384;51.418;7.286;2022-07-06T00:25:13;100746.75;;;17.81;57.06
55540;BME280;41384;51.418;7.286;2022-07-06T00:27:38;100746.03;;;17.98;56.42
55540;BME280;41384;51.418;7.286;2022-07-06T00:30:04;100750.53;;;17.61;57.04
55540;BME280;41384;51.418;7.286;2022-07-06T00:32:30;100748.13;;;17.72;57.21
55540;BME280;41384;51.418;7.286;2022-07-06T00:34:55;100745.56;;;17.65;57.68
55540;BME280;41384;51.418;7.286;2022-07-06T00:37:20;100739.50;;;17.58;57.89
55540;BME280;41384;51.418;7.286;2022-07-06T00:39:45;100744.88;;;17.70;57.87
55540;BME280;41384;51.418;7.286;2022-07-06T00:42:11;100745.25;;;18.09;56.14
55540;BME280;41384;51.418;7.286;2022-07-06T00:44:36;100735.69;;;17.77;56.79
55540;BME280;41384;51.418;7.286;2022-07-06T00:47:02;100741.50;;;17.74;57.31
55540;BME280;41384;51.418;7.286;2022-07-06T00:49:27;100743.25;;;17.69;57.15
55540;BME280;41384;51.418;7.286;2022-07-06T00:52:11;100750.53;;;17.49;57.31
55540;BME280;41384;51.418;7.286;2022-07-06T00:54:39;100749.28;;;17.76;57.11
55540;BME280;41384;51.418;7.286;2022-07-06T00:57:06;100741.97;;;17.95;56.61
55540;BME280;41384;51.418;7.286;2022-07-06T00:59:31;100743.00;;;17.70;57.14
55540;BME280;41384;51.418;7.286;2022-07-06T01:01:57;100746.50;;;17.94;56.63
55540;BME280;41384;51.418;7.286;2022-07-06T01:04:22;100744.53;;;17.90;56.27
55540;BME280;41384;51.418;7.286;2022-07-06T01:06:48;100746.28;;;18.08;55.60
55540;BME280;41384;51.418;7.286;2022-07-06T01:09:14;100747.66;;;18.11;55.38
55540;BME280;41384;51.418;7.286;2022-07-06T01:11:39;100748.13;;;18.07;55.32
55540;BME280;41384;51.418;7.286;2022-07-06T01:14:05;100753.94;;;18.16;54.50
55540;BME280;41384;51.418;7.286;2022-07-06T01:16:31;100755.47;;;18.12;55.06
55540;BME280;41384;51.418;7.286;2022-07-06T01:18:56;100751.84;;;18.18;54.51
55540;BME280;41384;51.418;7.286;2022-07-06T01:21:22;100745.91;;;17.80;55.90
55540;BME280;41384;51.418;7.286;2022-07-06T01:23:48;100756.28;;;18.13;54.82
55540;BME280;41384;51.418;7.286;2022-07-06T01:26:15;100756.34;;;17.94;54.85
55540;BME280;41384;51.418;7.286;2022-07-06T01:28:43;100747.91;;;18.09;54.36
55540;BME280;41384;51.418;7.286;2022-07-06T01:31:20;100745.47;;;17.96;54.82
55540;BME280;41384;51.418;7.286;2022-07-06T01:33:46;100744.41;;;17.97;54.50
55540;BME280;41384;51.418;7.286;2022-07-06T01:40:05;100743.38;;;17.98;54.61
55540;BME280;41384;51.418;7.286;2022-07-06T01:42:49;100739.47;;;17.34;56.02
55540;BME280;41384;51.418;7.286;2022-07-06T01:45:15;100735.44;;;17.43;55.84
55540;BME280;41384;51.418;7.286;2022-07-06T01:47:40;100737.03;;;17.32;56.35
55540;BME280;41384;51.418;7.286;2022-07-06T01:50:07;100747.38;;;17.10;57.21
55540;BME280;41384;51.418;7.286;2022-07-06T01:52:33;100738.75;;;16.77;58.10
55540;BME280;41384;51.418;7.286;2022-07-06T01:54:58;100735.69;;;16.92;57.88
55540;BME280;41384;51.418;7.286;2022-07-06T01:57:23;100732.44;;;16.90;58.17
55540;BME280;41384;51.418;7.286;2022-07-06T01:59:49;100729.47;;;17.29;57.00
55540;BME280;41384;51.418;7.286;2022-07-06T02:02:14;100738.56;;;17.52;55.84
55540;BME280;41384;51.418;7.286;2022-07-06T02:04:40;100730.09;;;17.55;55.88
55540;BME280;41384;51.418;7.286;2022-07-06T02:07:05;100732.78;;;17.67;55.79
55540;BME280;41384;51.418;7.286;2022-07-06T02:09:31;100735.69;;;17.65;55.46
55540;BME280;41384;51.418;7.286;2022-07-06T02:11:56;100737.06;;;17.44;56.14
55540;BME280;41384;51.418;7.286;2022-07-06T02:14:21;100729.63;;;17.04;58.05
55540;BME280;41384;51.418;7.286;2022-07-06T02:16:46;100737.34;;;17.24;57.47
55540;BME280;41384;51.418;7.286;2022-07-06T02:19:12;100739.50;;;17.58;56.12
55540;BME280;41384;51.418;7.286;2022-07-06T02:21:37;100733.13;;;17.59;55.92
55540;BME280;41384;51.418;7.286;2022-07-06T02:24:02;100738.47;;;17.59;55.93
55540;BME280;41384;51.418;7.286;2022-07-06T02:26:28;100739.38;;;17.53;55.92
55540;BME280;41384;51.418;7.286;2022-07-06T02:28:53;100740.72;;;17.31;56.76
55540;BME280;41384;51.418;7.286;2022-07-06T02:31:18;100734.75;;;17.60;55.95
55540;BME280;41384;51.418;7.286;2022-07-06T02:33:44;100746.22;;;17.60;56.10
55540;BME280;41384;51.418;7.286;2022-07-06T02:36:09;100737.06;;;17.56;55.89
55540;BME280;41384;51.418;7.286;2022-07-06T02:38:34;100736.13;;;17.50;56.16
55540;BME280;41384;51.418;7.286;2022-07-06T02:40:59;100736.72;;;17.64;55.74
55540;BME280;41384;51.418;7.286;2022-07-06T02:43:25;100732.50;;;17.33;57.18
55540;BME280;41384;51.418;7.286;2022-07-06T02:45:50;100734.16;;;17.46;56.76
55540;BME280;41384;51.418;7.286;2022-07-06T02:48:16;100729.88;;;17.57;56.63
55540;BME280;41384;51.418;7.286;2022-07-06T02:50:41;100735.91;;;17.64;56.03
55540;BME280;41384;51.418;7.286;2022-07-06T02:53:06;100731.03;;;17.61;56.14
55540;BME280;41384;51.418;7.286;2022-07-06T02:55:32;100740.81;;;17.67;56.06
55540;BME280;41384;51.418;7.286;2022-07-06T02:57:57;100744.28;;;17.68;56.12
55540;BME280;41384;51.418;7.286;2022-07-06T03:00:22;100741.59;;;17.56;56.19
55540;BME280;41384;51.418;7.286;2022-07-06T03:02:48;100747.56;;;17.27;57.43
55540;BME280;41384;51.418;7.286;2022-07-06T03:05:13;100746.94;;;17.13;57.79
55540;BME280;41384;51.418;7.286;2022-07-06T03:07:38;100744.97;;;17.09;58.03
55540;BME280;41384;51.418;7.286;2022-07-06T03:10:04;100745.72;;;17.28;57.49
55540;BME280;41384;51.418;7.286;2022-07-06T03:12:29;100747.84;;;17.07;58.50
55540;BME280;41384;51.418;7.286;2022-07-06T03:14:54;100750.31;;;16.71;60.18
55540;BME280;41384;51.418;7.286;2022-07-06T03:17:20;100751.13;;;16.90;59.48
55540;BME280;41384;51.418;7.286;2022-07-06T03:19:46;100757.13;;;16.86;58.87
55540;BME280;41384;51.418;7.286;2022-07-06T03:22:11;100760.13;;;15.96;62.67
55540;BME280;41384;51.418;7.286;2022-07-06T03:24:37;100771.22;;;16.37;61.80
55540;BME280;41384;51.418;7.286;2022-07-06T03:27:02;100774.06;;;16.17;61.76
55540;BME280;41384;51.418;7.286;2022-07-06T03:29:27;100775.19;;;16.09;62.53
55540;BME280;41384;51.418;7.286;2022-07-06T03:31:53;100772.94;;;15.81;64.36
55540;BME280;41384;51.418;7.286;2022-07-06T03:34:18;100769.13;;;16.02;62.47
55540;BME280;41384;51.418;7.286;2022-07-06T03:36:43;100765.31;;;15.84;63.62
55540;BME280;41384;51.418;7.286;2022-07-06T03:39:08;100766.06;;;15.98;63.11
55540;BME280;41384;51.418;7.286;2022-07-06T03:41:34;100760.53;;;16.00;62.69
55540;BME280;41384;51.418;7.286;2022-07-06T03:43:59;100761.88;;;16.28;62.21
55540;BME280;41384;51.418;7.286;2022-07-06T03:46:25;100760.41;;;16.13;62.08
55540;BME280;41384;51.418;7.286;2022-07-06T03:48:50;100760.84;;;16.47;61.03
55540;BME280;41384;51.418;7.286;2022-07-06T03:51:15;100760.09;;;16.59;60.51
55540;BME280;41384;51.418;7.286;2022-07-06T03:53:40;100755.31;;;16.68;59.91
55540;BME280;41384;51.418;7.286;2022-07-06T03:56:06;100760.41;;;16.51;60.69
55540;BME280;41384;51.418;7.286;2022-07-06T03:58:50;100764.25;;;16.36;61.11
55540;BME280;41384;51.418;7.286;2022-07-06T04:01:15;100752.41;;;16.51;60.79
55540;BME280;41384;51.418;7.286;2022-07-06T04:03:40;100756.72;;;16.52;60.82
55540;BME280;41384;51.418;7.286;2022-07-06T04:06:06;100759.09;;;16.41;61.31
55540;BME280;41384;51.418;7.286;2022-07-06T04:08:31;100755.97;;;16.44;61.62
55540;BME280;41384;51.418;7.286;2022-07-06T04:10:56;100760.69;;;16.61;60.74
55540;BME280;41384;51.418;7.286;2022-07-06T04:13:22;100757.69;;;16.57;60.58
55540;BME280;41384;51.418;7.286;2022-07-06T04:15:48;100763.22;;;16.56;60.88
55540;BME280;41384;51.418;7.286;2022-07-06T04:18:14;100767.94;;;16.72;60.39
55540;BME280;41384;51.418;7.286;2022-07-06T04:20:39;100768.59;;;16.86;59.89
55540;BME280;41384;51.418;7.286;2022-07-06T04:23:04;100762.81;;;16.89;59.85
55540;BME280;41384;51.418;7.286;2022-07-06T04:25:30;100764.03;;;16.75;59.97
55540;BME280;41384;51.418;7.286;2022-07-06T04:27:55;100765.13;;;16.86;60.19
55540;BME280;41384;51.418;7.286;2022-07-06T04:30:20;100769.56;;;16.92;59.85
55540;BME280;41384;51.418;7.286;2022-07-06T04:32:46;100764.00;;;16.93;59.64
55540;BME280;41384;51.418;7.286;2022-07-06T04:35:11;100764.16;;;16.99;60.15
55540;BME280;41384;51.418;7.286;2022-07-06T04:37:36;100770.81;;;17.08;59.65
55540;BME280;41384;51.418;7.286;2022-07-06T04:40:03;100761.91;;;17.14;59.26
55540;BME280;41384;51.418;7.286;2022-07-06T04:42:28;100770.81;;;17.08;59.55
55540;BME280;41384;51.418;7.286;2022-07-06T04:44:53;100757.28;;;17.21;59.56
55540;BME280;41384;51.418;7.286;2022-07-06T04:47:19;100760.41;;;17.18;59.38
55540;BME280;41384;51.418;7.286;2022-07-06T04:49:44;100756.03;;;17.24;59.38
55540;BME280;41384;51.418;7.286;2022-07-06T04:52:09;100762.06;;;17.31;59.45
55540;BME280;41384;51.418;7.286;2022-07-06T04:54:35;100763.16;;;17.42;59.33
55540;BME280;41384;51.418;7.286;2022-07-06T04:57:00;100767.06;;;17.28;59.48
55540;BME280;41384;51.418;7.286;2022-07-06T04:59:25;100771.50;;;17.34;59.43
55540;BME280;41384;51.418;7.286;2022-07-06T05:01:50;100762.44;;;17.35;59.23
55540;BME280;41384;51.418;7.286;2022-07-06T05:04:16;100760.41;;;17.18;60.14
55540;BME280;41384;51.418;7.286;2022-07-06T05:06:44;100769.78;;;17.09;60.76
55540;BME280;41384;51.418;7.286;2022-07-06T05:09:10;100768.91;;;17.27;60.31
55540;BME280;41384;51.418;7.286;2022-07-06T05:11:36;100762.38;;;17.54;59.66
55540;BME280;41384;51.418;7.286;2022-07-06T05:14:02;100778.97;;;16.76;62.48
55540;BME280;41384;51.418;7.286;2022-07-06T05:16:27;100766.97;;;16.85;62.38
55540;BME280;41384;51.418;7.286;2022-07-06T05:18:53;100761.09;;;17.14;61.06
55540;BME280;41384;51.418;7.286;2022-07-06T05:21:18;100769.81;;;16.72;63.01
55540;BME280;41384;51.418;7.286;2022-07-06T05:23:43;100771.78;;;16.95;62.63
55540;BME280;41384;51.418;7.286;2022-07-06T05:26:08;100771.06;;;17.06;61.75
55540;BME280;41384;51.418;7.286;2022-07-06T05:28:34;100770.50;;;17.16;61.83
55540;BME280;41384;51.418;7.286;2022-07-06T05:30:59;100774.75;;;17.36;60.94
55540;BME280;41384;51.418;7.286;2022-07-06T05:33:27;100770.72;;;17.57;60.06
55540;BME280;41384;51.418;7.286;2022-07-06T05:35:52;100769.88;;;17.33;60.86
55540;BME280;41384;51.418;7.286;2022-07-06T05:38:18;100766.41;;;17.44;60.52
55540;BME280;41384;51.418;7.286;2022-07-06T05:40:43;100766.97;;;17.34;61.48
55540;BME280;41384;51.418;7.286;2022-07-06T05:43:09;100765.28;;;17.64;60.06
55540;BME280;41384;51.418;7.286;2022-07-06T05:45:35;100769.88;;;17.45;60.67
55540;BME280;41384;51.418;7.286;2022-07-06T05:48:00;100775.53;;;17.25;61.34
55540;BME280;41384;51.418;7.286;2022-07-06T05:50:44;100766.66;;;17.12;62.06
55540;BME280;41384;51.418;7.286;2022-07-06T05:53:09;100783.44;;;17.31;61.67
55540;BME280;41384;51.418;7.286;2022-07-06T05:55:34;100785.16;;;17.26;61.69
55540;BME280;41384;51.418;7.286;2022-07-06T05:57:59;100781.84;;;17.54;60.97
55540;BME280;41384;51.418;7.286;2022-07-06T06:00:26;100789.34;;;17.88;59.64
55540;BME280;41384;51.418;7.286;2022-07-06T06:02:51;100788.16;;;17.84;59.67
55540;BME280;41384;51.418;7.286;2022-07-06T06:05:17;100785.72;;;17.70;60.06
55540;BME280;41384;51.418;7.286;2022-07-06T06:07:43;100777.50;;;17.96;59.62
55540;BME280;41384;51.418;7.286;2022-07-06T06:10:11;100788.06;;;17.90;59.42
55540;BME280;41384;51.418;7.286;2022-07-06T06:12:37;100792.03;;;18.00;59.79
55540;BME280;41384;51.418;7.286;2022-07-06T06:15:04;100793.53;;;17.96;60.08
55540;BME280;41384;51.418;7.286;2022-07-06T06:17:29;100790.41;;;18.11;59.36
55540;BME280;41384;51.418;7.286;2022-07-06T06:19:55;100795.66;;;18.05;59.43
55540;BME280;41384;51.418;7.286;2022-07-06T06:22:20;100799.31;;;17.69;59.98
55540;BME280;41384;51.418;7.286;2022-07-06T06:24:46;100797.81;;;17.73;60.44
55540;BME280;41384;51.418;7.286;2022-07-06T06:27:11;100805.06;;;18.08;59.24
55540;BME280;41384;51.418;7.286;2022-07-06T06:29:37;100796.13;;;18.26;58.58
55540;BME280;41384;51.418;7.286;2022-07-06T06:32:03;100800.88;;;18.00;59.70
55540;BME280;41384;51.418;7.286;2022-07-06T06:34:30;100792.16;;;18.41;58.21
55540;BME280;41384;51.418;7.286;2022-07-06T06:36:55;100796.31;;;18.48;58.00
55540;BME280;41384;51.418;7.286;2022-07-06T06:39:20;100791.59;;;18.03;58.68
55540;BME280;41384;51.418;7.286;2022-07-06T06:41:46;100795.38;;;17.95;58.93
55540;BME280;41384;51.418;7.286;2022-07-06T06:44:11;100794.13;;;18.45;57.02
55540;BME280;41384;51.418;7.286;2022-07-06T06:46:36;100794.13;;;18.21;58.49
55540;BME280;41384;51.418;7.286;2022-07-06T06:49:03;100797.19;;;18.25;58.30
55540;BME280;41384;51.418;7.286;2022-07-06T06:51:28;100798.03;;;18.55;56.96
55540;BME280;41384;51.418;7.286;2022-07-06T06:53:53;100804.25;;;18.31;58.00
55540;BME280;41384;51.418;7.286;2022-07-06T06:56:18;100802.84;;;18.05;57.99
55540;BME280;41384;51.418;7.286;2022-07-06T06:58:44;100808.41;;;18.03;58.49
55540;BME280;41384;51.418;7.286;2022-07-06T07:01:09;100809.81;;;18.42;57.29
55540;BME280;41384;51.418;7.286;2022-07-06T07:03:34;100804.22;;;18.55;56.71
55540;BME280;41384;51.418;7.286;2022-07-06T07:06:00;100802.59;;;18.54;56.54
55540;BME280;41384;51.418;7.286;2022-07-06T07:08:25;100807.31;;;18.76;56.06
55540;BME280;41384;51.418;7.286;2022-07-06T07:10:51;100807.66;;;18.79;55.59
55540;BME280;41384;51.418;7.286;2022-07-06T07:13:16;100805.03;;;19.54;52.66
55540;BME280;41384;51.418;7.286;2022-07-06T07:15:41;100804.84;;;18.86;53.73
55540;BME280;41384;51.418;7.286;2022-07-06T07:18:06;100813.41;;;19.12;52.32
55540;BME280;41384;51.418;7.286;2022-07-06T07:20:32;100803.34;;;19.82;51.09
55540;BME280;41384;51.418;7.286;2022-07-06T07:22:58;100809.19;;;19.79;50.39
55540;BME280;41384;51.418;7.286;2022-07-06T07:25:24;100821.63;;;19.22;52.07
55540;BME280;41384;51.418;7.286;2022-07-06T07:27:49;100818.00;;;19.29;51.50
55540;BME280;41384;51.418;7.286;2022-07-06T07:30:14;100813.44;;;19.29;51.11
55540;BME280;41384;51.418;7.286;2022-07-06T07:32:39;100828.50;;;19.18;50.93
55540;BME280;41384;51.418;7.286;2022-07-06T07:35:08;100825.63;;;19.37;50.84
55540;BME280;41384;51.418;7.286;2022-07-06T07:37:34;100822.03;;;19.02;51.93
55540;BME280;41384;51.418;7.286;2022-07-06T07:39:59;100824.97;;;19.30;51.60
55540;BME280;41384;51.418;7.286;2022-07-06T07:42:24;100825.19;;;19.74;49.87
55540;BME280;41384;51.418;7.286;2022-07-06T07:44:49;100819.22;;;20.01;48.40
55540;BME280;41384;51.418;7.286;2022-07-06T07:47:15;100816.97;;;19.64;49.77
55540;BME280;41384;51.418;7.286;2022-07-06T07:49:40;100815.16;;;20.16;48.77
55540;BME280;41384;51.418;7.286;2022-07-06T07:52:06;100821.19;;;20.45;48.01
55540;BME280;41384;51.418;7.286;2022-07-06T07:54:31;100832.91;;;19.42;50.52
55540;BME280;41384;51.418;7.286;2022-07-06T07:56:56;100838.56;;;19.57;50.30
55540;BME280;41384;51.418;7.286;2022-07-06T07:59:22;100823.81;;;20.23;49.02
55540;BME280;41384;51.418;7.286;2022-07-06T08:01:47;100823.59;;;20.07;48.25
55540;BME280;41384;51.418;7.286;2022-07-06T08:04:13;100822.47;;;20.42;47.40
55540;BME280;41384;51.418;7.286;2022-07-06T08:06:38;100822.81;;;20.46;46.58
55540;BME280;41384;51.418;7.286;2022-07-06T08:09:03;100827.81;;;20.03;47.29
55540;BME280;41384;51.418;7.286;2022-07-06T08:11:30;100826.50;;;20.06;46.98
55540;BME280;41384;51.418;7.286;2022-07-06T08:13:55;100829.94;;;20.58;45.04
55540;BME280;41384;51.418;7.286;2022-07-06T08:16:21;100830.59;;;20.87;44.76
55540;BME280;41384;51.418;7.286;2022-07-06T08:18:46;100820.44;;;20.50;45.83
55540;BME280;41384;51.418;7.286;2022-07-06T08:21:11;100818.31;;;20.74;45.14
55540;BME280;41384;51.418;7.286;2022-07-06T08:23:37;100824.34;;;20.64;46.24
55540;BME280;41384;51.418;7.286;2022-07-06T08:26:03;100821.53;;;20.93;44.65
55540;BME280;41384;51.418;7.286;2022-07-06T08:28:28;100825.03;;;20.94;45.28
55540;BME280;41384;51.418;7.286;2022-07-06T08:30:54;100819.09;;;20.92;44.86
55540;BME280;41384;51.418;7.286;2022-07-06T08:33:20;100815.41;;;21.25;44.06
55540;BME280;41384;51.418;7.286;2022-07-06T08:35:45;100814.63;;;21.25;44.21
55540;BME280;41384;51.418;7.286;2022-07-06T08:38:10;100814.16;;;21.33;43.82
55540;BME280;41384;51.418;7.286;2022-07-06T08:40:38;100805.94;;;21.72;43.08
55540;BME280;41384;51.418;7.286;2022-07-06T08:43:05;100812.88;;;21.41;44.12
55540;BME280;41384;51.418;7.286;2022-07-06T08:45:30;100807.72;;;21.07;44.63
55540;BME280;41384;51.418;7.286;2022-07-06T08:47:59;100811.56;;;21.71;43.47
55540;BME280;41384;51.418;7.286;2022-07-06T08:50:28;100814.03;;;20.73;44.25
55540;BME280;41384;51.418;7.286;2022-07-06T08:52:54;100817.84;;;20.99;44.30
55540;BME280;41384;51.418;7.286;2022-07-06T08:55:19;100812.94;;;21.19;44.68
55540;BME280;41384;51.418;7.286;2022-07-06T08:57:46;100809.59;;;21.34;42.99
55540;BME280;41384;51.418;7.286;2022-07-06T09:00:12;100816.53;;;21.29;42.31
55540;BME280;41384;51.418;7.286;2022-07-06T09:02:40;100816.81;;;21.61;41.97
55540;BME280;41384;51.418;7.286;2022-07-06T09:05:06;100816.91;;;21.66;41.86
55540;BME280;41384;51.418;7.286;2022-07-06T09:07:33;100822.72;;;21.03;43.66
55540;BME280;41384;51.418;7.286;2022-07-06T09:09:59;100819.31;;;20.85;44.10
55540;BME280;41384;51.418;7.286;2022-07-06T09:12:28;100820.28;;;21.56;42.82
55540;BME280;41384;51.418;7.286;2022-07-06T09:14:56;100819.22;;;21.29;43.30
55540;BME280;41384;51.418;7.286;2022-07-06T09:17:25;100823.28;;;21.32;43.73
55540;BME280;41384;51.418;7.286;2022-07-06T09:19:51;100827.75;;;20.99;43.77
55540;BME280;41384;51.418;7.286;2022-07-06T09:22:31;100820.97;;;20.91;43.68
55540;BME280;41384;51.418;7.286;2022-07-06T09:25:14;100824.25;;;20.76;42.96
55540;BME280;41384;51.418;7.286;2022-07-06T09:27:47;100822.75;;;20.24;43.76
55540;BME280;41384;51.418;7.286;2022-07-06T09:30:14;100828.81;;;20.98;42.62
55540;BME280;41384;51.418;7.286;2022-07-06T09:32:42;100824.69;;;21.40;42.16
55540;BME280;41384;51.418;7.286;2022-07-06T09:35:09;100824.22;;;21.48;41.97
55540;BME280;41384;51.418;7.286;2022-07-06T09:37:44;100813.56;;;21.58;41.54
55540;BME280;41384;51.418;7.286;2022-07-06T09:40:19;100813.94;;;21.67;40.90
55540;BME280;41384;51.418;7.286;2022-07-06T09:42:45;100807.09;;;22.30;39.74
55540;BME280;41384;51.418;7.286;2022-07-06T09:45:10;100805.47;;;22.77;38.41
55540;BME280;41384;51.418;7.286;2022-07-06T09:47:36;100807.09;;;22.78;38.17
55540;BME280;41384;51.418;7.286;2022-07-06T09:50:05;100808.63;;;22.58;39.29
55540;BME280;41384;51.418;7.286;2022-07-06T09:52:34;100822.28;;;23.10;37.41
55540;BME280;41384;51.418;7.286;2022-07-06T09:54:59;100820.13;;;23.12;37.06
55540;BME280;41384;51.418;7.286;2022-07-06T09:57:24;100816.06;;;22.41;39.06
55540;BME280;41384;51.418;7.286;2022-07-06T09:59:51;100819.69;;;22.14;40.00
55540;BME280;41384;51.418;7.286;2022-07-06T10:02:19;100816.91;;;22.04;38.72
55540;BME280;41384;51.418;7.286;2022-07-06T10:04:45;100814.91;;;22.26;38.19
55540;BME280;41384;51.418;7.286;2022-07-06T10:09:37;100809.53;;;22.80;37.56
55540;BME280;41384;51.418;7.286;2022-07-06T10:12:03;100816.25;;;22.87;37.00
55540;BME280;41384;51.418;7.286;2022-07-06T10:14:32;100815.44;;;22.77;37.75
55540;BME280;41384;51.418;7.286;2022-07-06T10:17:00;100806.84;;;22.80;37.60
55540;BME280;41384;51.418;7.286;2022-07-06T10:19:27;100817.78;;;23.52;36.41
55540;BME280;41384;51.418;7.286;2022-07-06T10:21:53;100811.03;;;23.91;35.42
55540;BME280;41384;51.418;7.286;2022-07-06T10:24:20;100815.03;;;23.31;37.35
55540;BME280;41384;51.418;7.286;2022-07-06T10:26:46;100814.88;;;22.74;37.70
55540;BME280;41384;51.418;7.286;2022-07-06T10:29:12;100810.34;;;22.85;37.10
55540;BME280;41384;51.418;7.286;2022-07-06T10:31:40;100820.00;;;22.76;37.65
55540;BME280;41384;51.418;7.286;2022-07-06T10:34:11;100818.97;;;22.93;37.09
55540;BME280;41384;51.418;7.286;2022-07-06T10:36:42;100820.78;;;22.18;38.59
55540;BME280;41384;51.418;7.286;2022-07-06T10:39:09;100814.50;;;22.07;39.73
55540;BME280;41384;51.418;7.286;2022-07-06T10:41:54;100812.97;;;22.65;39.02
55540;BME280;41384;51.418;7.286;2022-07-06T10:44:26;100816.78;;;22.84;37.61
55540;BME280;41384;51.418;7.286;2022-07-06T10:46:56;100816.94;;;23.46;36.53
55540;BME280;41384;51.418;7.286;2022-07-06T10:49:24;100816.41;;;23.50;36.19
55540;BME280;41384;51.418;7.286;2022-07-06T10:51:50;100812.66;;;23.51;36.87
55540;BME280;41384;51.418;7.286;2022-07-06T10:54:17;100813.19;;;23.58;36.12
55540;BME280;41384;51.418;7.286;2022-07-06T10:56:50;100817.44;;;23.23;36.38
55540;BME280;41384;51.418;7.286;2022-07-06T10:59:23;100818.22;;;23.08;36.65
55540;BME280;41384;51.418;7.286;2022-07-06T11:02:11;100814.50;;;23.24;37.11
55540;BME280;41384;51.418;7.286;2022-07-06T11:04:37;100810.19;;;23.28;36.91
55540;BME280;41384;51.418;7.286;2022-07-06T11:07:22;100811.91;;;22.71;37.15
55540;BME280;41384;51.418;7.286;2022-07-06T11:09:58;100815.81;;;23.22;36.39
55540;BME280;41384;51.418;7.286;2022-07-06T11:12:23;100809.41;;;23.38;36.36
55540;BME280;41384;51.418;7.286;2022-07-06T11:14:50;100803.16;;;23.22;36.04
55540;BME280;41384;51.418;7.286;2022-07-06T11:17:17;100803.94;;;23.02;36.76
55540;BME280;41384;51.418;7.286;2022-07-06T11:20:09;100798.03;;;23.21;36.11
55540;BME280;41384;51.418;7.286;2022-07-06T11:22:35;100803.59;;;22.78;35.85
55540;BME280;41384;51.418;7.286;2022-07-06T11:25:01;100806.38;;;23.09;35.32
55540;BME280;41384;51.418;7.286;2022-07-06T11:27:27;100809.91;;;23.20;35.67
55540;BME280;41384;51.418;7.286;2022-07-06T11:29:52;100802.63;;;24.18;34.48
55540;BME280;41384;51.418;7.286;2022-07-06T11:32:23;100788.31;;;24.94;32.89
55540;BME280;41384;51.418;7.286;2022-07-06T11:34:49;100792.63;;;24.95;32.86
55540;BME280;41384;51.418;7.286;2022-07-06T11:37:14;100780.41;;;24.53;32.26
55540;BME280;41384;51.418;7.286;2022-07-06T11:39:41;100789.22;;;23.51;34.38
55540;BME280;41384;51.418;7.286;2022-07-06T11:42:12;100790.28;;;23.55;33.36
55540;BME280;41384;51.418;7.286;2022-07-06T11:44:38;100797.00;;;23.79;32.93
55540;BME280;41384;51.418;7.286;2022-07-06T11:47:05;100790.28;;;24.68;33.17
55540;BME280;41384;51.418;7.286;2022-07-06T11:49:32;100790.03;;;24.74;32.34
55540;BME280;41384;51.418;7.286;2022-07-06T11:51:57;100785.13;;;24.82;32.44
55540;BME280;41384;51.418;7.286;2022-07-06T11:54:24;100779.78;;;24.66;32.55
55540;BME280;41384;51.418;7.286;2022-07-06T11:56:57;100787.81;;;24.16;33.54
55540;BME280;41384;51.418;7.286;2022-07-06T11:59:27;100800.47;;;24.15;34.07
55540;BME280;41384;51.418;7.286;2022-07-06T12:02:03;100799.97;;;23.77;34.54
55540;BME280;41384;51.418;7.286;2022-07-06T12:04:33;100797.81;;;23.32;35.62
55540;BME280;41384;51.418;7.286;2022-07-06T12:07:06;100796.75;;;23.65;35.99
55540;BME280;41384;51.418;7.286;2022-07-06T12:09:37;100801.03;;;23.92;34.84
55540;BME280;41384;51.418;7.286;2022-07-06T12:12:03;100798.34;;;23.81;35.34
55540;BME280;41384;51.418;7.286;2022-07-06T12:14:30;100796.47;;;23.76;34.67
55540;BME280;41384;51.418;7.286;2022-07-06T12:17:02;100790.53;;;23.59;35.46
55540;BME280;41384;51.418;7.286;2022-07-06T12:19:28;100786.00;;;23.44;35.33
55540;BME280;41384;51.418;7.286;2022-07-06T12:21:54;100777.25;;;24.35;34.18
55540;BME280;41384;51.418;7.286;2022-07-06T12:24:24;100774.25;;;25.72;32.29
55540;BME280;41384;51.418;7.286;2022-07-06T12:26:51;100763.56;;;24.76;33.38
55540;BME280;41384;51.418;7.286;2022-07-06T12:29:16;100768.16;;;25.85;32.45
55540;BME280;41384;51.418;7.286;2022-07-06T12:31:56;100759.59;;;26.51;31.55
55540;BME280;41384;51.418;7.286;2022-07-06T12:34:22;100763.94;;;25.39;32.62
55540;BME280;41384;51.418;7.286;2022-07-06T12:36:53;100759.88;;;25.76;31.29
55540;BME280;41384;51.418;7.286;2022-07-06T12:39:23;100750.91;;;25.12;32.78
55540;BME280;41384;51.418;7.286;2022-07-06T12:41:58;100748.81;;;25.73;31.21
55540;BME280;41384;51.418;7.286;2022-07-06T12:44:26;100735.31;;;26.65;29.79
55540;BME280;41384;51.418;7.286;2022-07-06T12:47:06;100739.09;;;26.64;30.43
55540;BME280;41384;51.418;7.286;2022-07-06T12:49:32;100743.16;;;27.05;29.74
55540;BME280;41384;51.418;7.286;2022-07-06T12:54:33;100739.19;;;26.78;30.16
55540;BME280;41384;51.418;7.286;2022-07-06T12:59:25;100729.56;;;27.24;28.39